sensor_id;sensor_type;location;lat;lon;timestamp;P1;durP1;ratioP1;P2;durP2;ratioP2
14736;SDS011;7459;53.590;10.062;2022-10-31T00:00:30;30.17;;;19.37;;
14736;SDS011;7459;53.590;10.062;2022-10-31T00:02:56;32.97;;;18.50;;
14736;SDS011;7459;53.590;10.062;2022-10-31T00:05:21;30.77;;;18.02;;
14736;SDS011;7459;53.590;10.062;2022-10-31T00:07:47;31.13;;;18.23;;
14736;SDS011;7459;53.590;10.062;2022-10-31T00:10:17;30.23;;;17.30;;
14736;SDS011;7459;53.590;10.062;2022-10-31T00:12:42;31.97;;;17.57;;
14736;SDS011;7459;53.590;10.062;2022-10-31T00:15:08;29.83;;;17.25;;
14736;SDS011;7459;53.590;10.062;2022-10-31T00:17:34;31.13;;;17.27;;
14736;SDS011;7459;53.590;10.062;2022-10-31T00:20:01;30.50;;;15.97;;
14736;SDS011;7459;53.590;10.062;2022-10-31T00:22:27;27.75;;;15.98;;
14736;SDS011;7459;53.590;10.062;2022-10-31T00:24:52;26.67;;;15.30;;
14736;SDS011;7459;53.590;10.062;2022-10-31T00:27:18;33.65;;;14.90;;
14736;SDS011;7459;53.590;10.062;2022-10-31T00:29:43;26.03;;;16.00;;
14736;SDS011;7459;53.590;10.062;2022-10-31T00:32:09;27.33;;;15.02;;
14736;SDS011;7459;53.590;10.062;2022-10-31T00:34:35;24.27;;;15.83;;
14736;SDS011;7459;53.590;10.062;2022-10-31T00:37:00;26.23;;;13.85;;
14736;SDS011;7459;53.590;10.062;2022-10-31T00:39:26;28.17;;;14.37;;
14736;SDS011;7459;53.590;10.062;2022-10-31T00:41:52;27.10;;;13.43;;
14736;SDS011;7459;53.590;10.062;2022-10-31T00:44:17;24.37;;;13.37;;
14736;SDS011;7459;53.590;10.062;2022-10-31T00:46:43;23.10;;;12.88;;
14736;SDS011;7459;53.590;10.062;2022-10-31T00:49:09;25.37;;;13.07;;
14736;SDS011;7459;53.590;10.062;2022-10-31T00:51:34;23.95;;;12.88;;
14736;SDS011;7459;53.590;10.062;2022-10-31T00:54:00;24.83;;;13.17;;
14736;SDS011;7459;53.590;10.062;2022-10-31T00:56:26;25.20;;;14.10;;
14736;SDS011;7459;53.590;10.062;2022-10-31T00:58:52;26.13;;;13.70;;
14736;SDS011;7459;53.590;10.062;2022-10-31T01:01:18;28.95;;;13.93;;
14736;SDS011;7459;53.590;10.062;2022-10-31T01:03:43;26.98;;;14.48;;
14736;SDS011;7459;53.590;10.062;2022-10-31T01:06:11;28.93;;;13.90;;
14736;SDS011;7459;53.590;10.062;2022-10-31T01:08:38;28.67;;;15.05;;
14736;SDS011;7459;53.590;10.062;2022-10-31T01:13:36;25.20;;;13.85;;
14736;SDS011;7459;53.590;10.062;2022-10-31T01:16:03;27.83;;;14.20;;
14736;SDS011;7459;53.590;10.062;2022-10-31T01:18:30;27.58;;;13.70;;
14736;SDS011;7459;53.590;10.062;2022-10-31T01:20:57;27.92;;;14.02;;
14736;SDS011;7459;53.590;10.062;2022-10-31T01:23:24;25.93;;;15.40;;
14736;SDS011;7459;53.590;10.062;2022-10-31T01:25:49;35.60;;;14.45;;
14736;SDS011;7459;53.590;10.062;2022-10-31T01:28:29;30.15;;;13.63;;
14736;SDS011;7459;53.590;10.062;2022-10-31T01:30:54;26.87;;;14.17;;
14736;SDS011;7459;53.590;10.062;2022-10-31T01:33:20;30.80;;;14.95;;
14736;SDS011;7459;53.590;10.062;2022-10-31T01:35:46;29.50;;;15.17;;
14736;SDS011;7459;53.590;10.062;2022-10-31T01:38:11;29.40;;;14.68;;
14736;SDS011;7459;53.590;10.062;2022-10-31T01:40:37;33.33;;;16.23;;
14736;SDS011;7459;53.590;10.062;2022-10-31T01:43:03;29.27;;;15.93;;
14736;SDS011;7459;53.590;10.062;2022-10-31T01:45:28;32.10;;;15.00;;
14736;SDS011;7459;53.590;10.062;2022-10-31T01:47:54;33.90;;;15.18;;
14736;SDS011;7459;53.590;10.062;2022-10-31T01:50:41;30.85;;;15.95;;
14736;SDS011;7459;53.590;10.062;2022-10-31T01:53:08;29.70;;;14.53;;
14736;SDS011;7459;53.590;10.062;2022-10-31T01:55:40;30.02;;;16.08;;
14736;SDS011;7459;53.590;10.062;2022-10-31T01:58:13;37.50;;;16.73;;
14736;SDS011;7459;53.590;10.062;2022-10-31T02:00:52;31.90;;;14.75;;
14736;SDS011;7459;53.590;10.062;2022-10-31T02:03:21;33.45;;;16.25;;
14736;SDS011;7459;53.590;10.062;2022-10-31T02:05:47;30.67;;;16.63;;
14736;SDS011;7459;53.590;10.062;2022-10-31T02:08:21;34.88;;;15.80;;
14736;SDS011;7459;53.590;10.062;2022-10-31T02:10:53;33.20;;;16.48;;
14736;SDS011;7459;53.590;10.062;2022-10-31T02:13:21;28.02;;;15.38;;
14736;SDS011;7459;53.590;10.062;2022-10-31T02:15:49;33.15;;;15.27;;
14736;SDS011;7459;53.590;10.062;2022-10-31T02:18:19;34.10;;;16.03;;
14736;SDS011;7459;53.590;10.062;2022-10-31T02:20:48;32.40;;;15.40;;
14736;SDS011;7459;53.590;10.062;2022-10-31T02:26:35;35.63;;;15.55;;
14736;SDS011;7459;53.590;10.062;2022-10-31T02:32:20;32.73;;;15.07;;
14736;SDS011;7459;53.590;10.062;2022-10-31T02:35:04;30.00;;;15.65;;
14736;SDS011;7459;53.590;10.062;2022-10-31T02:40:52;33.33;;;17.48;;
14736;SDS011;7459;53.590;10.062;2022-10-31T02:46:43;31.30;;;15.63;;
14736;SDS011;7459;53.590;10.062;2022-10-31T02:49:25;33.97;;;15.68;;
14736;SDS011;7459;53.590;10.062;2022-10-31T02:52:00;32.45;;;15.45;;
14736;SDS011;7459;53.590;10.062;2022-10-31T02:54:26;30.73;;;14.50;;
14736;SDS011;7459;53.590;10.062;2022-10-31T02:56:55;35.47;;;15.10;;
14736;SDS011;7459;53.590;10.062;2022-10-31T02:59:31;31.98;;;16.02;;
14736;SDS011;7459;53.590;10.062;2022-10-31T03:07:59;34.40;;;16.50;;
14736;SDS011;7459;53.590;10.062;2022-10-31T03:16:15;33.17;;;15.48;;
14736;SDS011;7459;53.590;10.062;2022-10-31T03:21:35;34.35;;;15.52;;
14736;SDS011;7459;53.590;10.062;2022-10-31T03:24:12;31.77;;;14.80;;
14736;SDS011;7459;53.590;10.062;2022-10-31T03:26:46;33.20;;;15.75;;
14736;SDS011;7459;53.590;10.062;2022-10-31T03:29:17;32.13;;;15.60;;
14736;SDS011;7459;53.590;10.062;2022-10-31T03:34:20;31.40;;;15.10;;
14736;SDS011;7459;53.590;10.062;2022-10-31T03:36:48;33.63;;;16.07;;
14736;SDS011;7459;53.590;10.062;2022-10-31T03:39:18;31.92;;;14.77;;
14736;SDS011;7459;53.590;10.062;2022-10-31T03:41:52;31.48;;;15.05;;
14736;SDS011;7459;53.590;10.062;2022-10-31T03:44:23;33.33;;;14.93;;
14736;SDS011;7459;53.590;10.062;2022-10-31T03:46:50;36.70;;;16.20;;
14736;SDS011;7459;53.590;10.062;2022-10-31T03:49:16;34.73;;;16.13;;
14736;SDS011;7459;53.590;10.062;2022-10-31T03:52:28;37.17;;;16.88;;
14736;SDS011;7459;53.590;10.062;2022-10-31T03:54:46;32.75;;;15.55;;
14736;SDS011;7459;53.590;10.062;2022-10-31T03:57:24;34.70;;;15.47;;
14736;SDS011;7459;53.590;10.062;2022-10-31T04:02:33;34.65;;;16.95;;
14736;SDS011;7459;53.590;10.062;2022-10-31T04:05:04;42.03;;;15.40;;
14736;SDS011;7459;53.590;10.062;2022-10-31T04:07:32;35.17;;;17.10;;
14736;SDS011;7459;53.590;10.062;2022-10-31T04:10:04;37.67;;;16.23;;
14736;SDS011;7459;53.590;10.062;2022-10-31T04:12:33;37.65;;;16.08;;
14736;SDS011;7459;53.590;10.062;2022-10-31T04:15:00;36.15;;;16.90;;
14736;SDS011;7459;53.590;10.062;2022-10-31T04:17:29;38.47;;;18.13;;
14736;SDS011;7459;53.590;10.062;2022-10-31T04:19:59;34.72;;;17.25;;
14736;SDS011;7459;53.590;10.062;2022-10-31T04:22:25;36.83;;;16.50;;
14736;SDS011;7459;53.590;10.062;2022-10-31T04:24:51;45.15;;;18.17;;
14736;SDS011;7459;53.590;10.062;2022-10-31T04:27:17;34.83;;;16.17;;
14736;SDS011;7459;53.590;10.062;2022-10-31T04:29:43;36.13;;;17.60;;
14736;SDS011;7459;53.590;10.062;2022-10-31T04:32:08;33.45;;;17.05;;
14736;SDS011;7459;53.590;10.062;2022-10-31T04:34:34;39.70;;;17.23;;
14736;SDS011;7459;53.590;10.062;2022-10-31T04:37:00;41.08;;;17.05;;
14736;SDS011;7459;53.590;10.062;2022-10-31T04:39:25;34.90;;;16.83;;
14736;SDS011;7459;53.590;10.062;2022-10-31T04:41:51;40.33;;;16.25;;
14736;SDS011;7459;53.590;10.062;2022-10-31T04:44:17;39.70;;;17.23;;
14736;SDS011;7459;53.590;10.062;2022-10-31T04:46:42;37.00;;;15.65;;
14736;SDS011;7459;53.590;10.062;2022-10-31T04:49:08;34.57;;;16.00;;
14736;SDS011;7459;53.590;10.062;2022-10-31T04:51:34;37.65;;;18.17;;
14736;SDS011;7459;53.590;10.062;2022-10-31T04:53:59;35.77;;;17.60;;
14736;SDS011;7459;53.590;10.062;2022-10-31T04:56:25;35.83;;;17.15;;
14736;SDS011;7459;53.590;10.062;2022-10-31T04:58:51;39.43;;;17.10;;
14736;SDS011;7459;53.590;10.062;2022-10-31T05:01:17;40.13;;;18.30;;
14736;SDS011;7459;53.590;10.062;2022-10-31T05:03:42;40.97;;;17.00;;
14736;SDS011;7459;53.590;10.062;2022-10-31T05:06:08;37.78;;;17.67;;
14736;SDS011;7459;53.590;10.062;2022-10-31T05:08:34;37.35;;;16.83;;
14736;SDS011;7459;53.590;10.062;2022-10-31T05:11:01;34.03;;;16.87;;
14736;SDS011;7459;53.590;10.062;2022-10-31T05:13:28;34.63;;;17.73;;
14736;SDS011;7459;53.590;10.062;2022-10-31T05:15:54;34.53;;;16.80;;
14736;SDS011;7459;53.590;10.062;2022-10-31T05:18:20;35.90;;;17.15;;
14736;SDS011;7459;53.590;10.062;2022-10-31T05:20:46;40.90;;;17.03;;
14736;SDS011;7459;53.590;10.062;2022-10-31T05:23:12;37.40;;;16.42;;
14736;SDS011;7459;53.590;10.062;2022-10-31T05:25:39;36.30;;;16.33;;
14736;SDS011;7459;53.590;10.062;2022-10-31T05:28:05;38.47;;;15.70;;
14736;SDS011;7459;53.590;10.062;2022-10-31T05:30:32;35.42;;;15.63;;
14736;SDS011;7459;53.590;10.062;2022-10-31T05:32:58;37.35;;;16.27;;
14736;SDS011;7459;53.590;10.062;2022-10-31T05:35:26;34.42;;;16.27;;
14736;SDS011;7459;53.590;10.062;2022-10-31T05:37:54;35.70;;;14.95;;
14736;SDS011;7459;53.590;10.062;2022-10-31T05:40:20;39.23;;;16.20;;
14736;SDS011;7459;53.590;10.062;2022-10-31T05:42:47;33.55;;;15.20;;
14736;SDS011;7459;53.590;10.062;2022-10-31T05:45:16;33.10;;;15.07;;
14736;SDS011;7459;53.590;10.062;2022-10-31T05:47:50;37.10;;;15.43;;
14736;SDS011;7459;53.590;10.062;2022-10-31T05:50:25;35.60;;;16.08;;
14736;SDS011;7459;53.590;10.062;2022-10-31T05:52:56;32.47;;;14.93;;
14736;SDS011;7459;53.590;10.062;2022-10-31T05:55:27;34.33;;;15.07;;
14736;SDS011;7459;53.590;10.062;2022-10-31T05:57:54;32.42;;;15.13;;
14736;SDS011;7459;53.590;10.062;2022-10-31T06:00:21;32.28;;;15.80;;
14736;SDS011;7459;53.590;10.062;2022-10-31T06:02:48;38.28;;;16.05;;
14736;SDS011;7459;53.590;10.062;2022-10-31T06:05:14;33.03;;;14.83;;
14736;SDS011;7459;53.590;10.062;2022-10-31T06:07:41;35.88;;;14.95;;
14736;SDS011;7459;53.590;10.062;2022-10-31T06:10:07;36.28;;;15.95;;
14736;SDS011;7459;53.590;10.062;2022-10-31T06:12:33;38.00;;;16.33;;
14736;SDS011;7459;53.590;10.062;2022-10-31T06:15:05;41.70;;;15.95;;
14736;SDS011;7459;53.590;10.062;2022-10-31T06:17:33;34.20;;;14.43;;
14736;SDS011;7459;53.590;10.062;2022-10-31T06:19:59;40.90;;;16.00;;
14736;SDS011;7459;53.590;10.062;2022-10-31T06:22:25;40.42;;;16.83;;
14736;SDS011;7459;53.590;10.062;2022-10-31T06:24:51;39.03;;;16.05;;
14736;SDS011;7459;53.590;10.062;2022-10-31T06:27:17;39.97;;;15.53;;
14736;SDS011;7459;53.590;10.062;2022-10-31T06:29:43;43.90;;;16.45;;
14736;SDS011;7459;53.590;10.062;2022-10-31T06:32:10;40.43;;;16.50;;
14736;SDS011;7459;53.590;10.062;2022-10-31T06:34:37;39.25;;;15.27;;
14736;SDS011;7459;53.590;10.062;2022-10-31T06:37:05;42.90;;;17.63;;
14736;SDS011;7459;53.590;10.062;2022-10-31T06:39:35;40.15;;;16.30;;
14736;SDS011;7459;53.590;10.062;2022-10-31T06:42:01;43.27;;;15.63;;
14736;SDS011;7459;53.590;10.062;2022-10-31T06:44:28;36.92;;;15.07;;
14736;SDS011;7459;53.590;10.062;2022-10-31T06:46:53;35.05;;;14.90;;
14736;SDS011;7459;53.590;10.062;2022-10-31T06:49:19;40.60;;;15.47;;
14736;SDS011;7459;53.590;10.062;2022-10-31T06:51:48;40.90;;;13.93;;
14736;SDS011;7459;53.590;10.062;2022-10-31T06:54:14;36.42;;;14.40;;
14736;SDS011;7459;53.590;10.062;2022-10-31T06:56:41;34.15;;;14.90;;
14736;SDS011;7459;53.590;10.062;2022-10-31T06:59:06;35.43;;;15.87;;
14736;SDS011;7459;53.590;10.062;2022-10-31T07:01:32;40.90;;;15.32;;
14736;SDS011;7459;53.590;10.062;2022-10-31T07:03:58;39.10;;;15.60;;
14736;SDS011;7459;53.590;10.062;2022-10-31T07:06:24;33.85;;;14.73;;
14736;SDS011;7459;53.590;10.062;2022-10-31T07:08:49;38.83;;;14.77;;
14736;SDS011;7459;53.590;10.062;2022-10-31T07:11:15;35.30;;;15.07;;
14736;SDS011;7459;53.590;10.062;2022-10-31T07:13:41;37.10;;;15.27;;
14736;SDS011;7459;53.590;10.062;2022-10-31T07:16:07;33.43;;;13.77;;
14736;SDS011;7459;53.590;10.062;2022-10-31T07:18:33;31.40;;;13.68;;
14736;SDS011;7459;53.590;10.062;2022-10-31T07:20:59;30.65;;;12.27;;
14736;SDS011;7459;53.590;10.062;2022-10-31T07:23:25;30.60;;;12.83;;
14736;SDS011;7459;53.590;10.062;2022-10-31T07:25:54;35.47;;;15.13;;
14736;SDS011;7459;53.590;10.062;2022-10-31T07:28:24;33.97;;;14.75;;
14736;SDS011;7459;53.590;10.062;2022-10-31T07:30:51;35.20;;;13.07;;
14736;SDS011;7459;53.590;10.062;2022-10-31T07:33:19;35.50;;;12.93;;
14736;SDS011;7459;53.590;10.062;2022-10-31T07:35:45;32.08;;;13.48;;
14736;SDS011;7459;53.590;10.062;2022-10-31T07:38:11;28.30;;;12.53;;
14736;SDS011;7459;53.590;10.062;2022-10-31T07:40:39;35.33;;;12.73;;
14736;SDS011;7459;53.590;10.062;2022-10-31T07:43:06;26.83;;;11.70;;
14736;SDS011;7459;53.590;10.062;2022-10-31T07:45:31;29.17;;;11.38;;
14736;SDS011;7459;53.590;10.062;2022-10-31T07:47:57;25.63;;;9.97;;
14736;SDS011;7459;53.590;10.062;2022-10-31T07:50:24;31.02;;;10.95;;
14736;SDS011;7459;53.590;10.062;2022-10-31T07:53:02;26.83;;;10.63;;
14736;SDS011;7459;53.590;10.062;2022-10-31T07:55:34;29.37;;;11.13;;
14736;SDS011;7459;53.590;10.062;2022-10-31T07:58:01;28.55;;;11.05;;
14736;SDS011;7459;53.590;10.062;2022-10-31T08:00:30;31.80;;;10.85;;
14736;SDS011;7459;53.590;10.062;2022-10-31T08:03:02;24.88;;;11.15;;
14736;SDS011;7459;53.590;10.062;2022-10-31T08:05:33;28.20;;;11.00;;
14736;SDS011;7459;53.590;10.062;2022-10-31T08:08:00;25.13;;;11.07;;
14736;SDS011;7459;53.590;10.062;2022-10-31T08:10:27;28.88;;;12.00;;
14736;SDS011;7459;53.590;10.062;2022-10-31T08:12:56;30.77;;;11.25;;
14736;SDS011;7459;53.590;10.062;2022-10-31T08:15:24;28.85;;;10.48;;
14736;SDS011;7459;53.590;10.062;2022-10-31T08:17:50;25.08;;;10.70;;
14736;SDS011;7459;53.590;10.062;2022-10-31T08:20:16;27.03;;;10.87;;
14736;SDS011;7459;53.590;10.062;2022-10-31T08:22:42;24.38;;;10.65;;
14736;SDS011;7459;53.590;10.062;2022-10-31T08:25:08;26.27;;;10.77;;
14736;SDS011;7459;53.590;10.062;2022-10-31T08:27:34;24.73;;;10.98;;
14736;SDS011;7459;53.590;10.062;2022-10-31T08:29:59;28.10;;;11.02;;
14736;SDS011;7459;53.590;10.062;2022-10-31T08:32:26;27.23;;;10.27;;
14736;SDS011;7459;53.590;10.062;2022-10-31T08:34:52;27.17;;;10.45;;
14736;SDS011;7459;53.590;10.062;2022-10-31T08:37:17;32.87;;;10.77;;
14736;SDS011;7459;53.590;10.062;2022-10-31T08:39:47;29.27;;;10.57;;
14736;SDS011;7459;53.590;10.062;2022-10-31T08:42:13;24.40;;;11.07;;
14736;SDS011;7459;53.590;10.062;2022-10-31T08:44:39;27.20;;;10.75;;
14736;SDS011;7459;53.590;10.062;2022-10-31T08:47:04;29.23;;;10.00;;
14736;SDS011;7459;53.590;10.062;2022-10-31T08:49:30;22.85;;;10.10;;
14736;SDS011;7459;53.590;10.062;2022-10-31T08:51:56;23.63;;;9.70;;
14736;SDS011;7459;53.590;10.062;2022-10-31T08:54:22;27.67;;;12.07;;
14736;SDS011;7459;53.590;10.062;2022-10-31T08:56:47;23.37;;;9.40;;
14736;SDS011;7459;53.590;10.062;2022-10-31T08:59:13;21.65;;;9.20;;
14736;SDS011;7459;53.590;10.062;2022-10-31T09:01:39;23.40;;;9.30;;
14736;SDS011;7459;53.590;10.062;2022-10-31T09:04:04;26.25;;;9.32;;
14736;SDS011;7459;53.590;10.062;2022-10-31T09:06:30;25.97;;;9.80;;
14736;SDS011;7459;53.590;10.062;2022-10-31T09:08:56;24.90;;;10.30;;
14736;SDS011;7459;53.590;10.062;2022-10-31T09:11:21;20.67;;;9.20;;
14736;SDS011;7459;53.590;10.062;2022-10-31T09:13:47;26.40;;;9.07;;
14736;SDS011;7459;53.590;10.062;2022-10-31T09:16:13;22.10;;;9.00;;
14736;SDS011;7459;53.590;10.062;2022-10-31T09:18:38;24.43;;;10.47;;
14736;SDS011;7459;53.590;10.062;2022-10-31T09:21:04;23.87;;;10.77;;
14736;SDS011;7459;53.590;10.062;2022-10-31T09:23:30;31.45;;;10.98;;
14736;SDS011;7459;53.590;10.062;2022-10-31T09:25:58;30.83;;;12.00;;
14736;SDS011;7459;53.590;10.062;2022-10-31T09:28:26;28.98;;;12.15;;
14736;SDS011;7459;53.590;10.062;2022-10-31T09:30:53;28.85;;;10.63;;
14736;SDS011;7459;53.590;10.062;2022-10-31T09:33:19;29.90;;;11.57;;
14736;SDS011;7459;53.590;10.062;2022-10-31T09:35:45;28.27;;;10.50;;
14736;SDS011;7459;53.590;10.062;2022-10-31T09:38:12;29.77;;;10.80;;
14736;SDS011;7459;53.590;10.062;2022-10-31T09:40:41;26.73;;;10.18;;
14736;SDS011;7459;53.590;10.062;2022-10-31T09:49:24;29.17;;;10.48;;
14736;SDS011;7459;53.590;10.062;2022-10-31T09:52:20;30.20;;;10.77;;
14736;SDS011;7459;53.590;10.062;2022-10-31T09:54:54;26.98;;;10.15;;
14736;SDS011;7459;53.590;10.062;2022-10-31T09:57:42;32.25;;;10.85;;
14736;SDS011;7459;53.590;10.062;2022-10-31T10:00:16;32.87;;;11.93;;
14736;SDS011;7459;53.590;10.062;2022-10-31T10:02:47;31.77;;;11.95;;
14736;SDS011;7459;53.590;10.062;2022-10-31T10:05:43;25.83;;;9.68;;
14736;SDS011;7459;53.590;10.062;2022-10-31T10:08:23;26.95;;;10.82;;
14736;SDS011;7459;53.590;10.062;2022-10-31T10:10:57;29.15;;;10.77;;
14736;SDS011;7459;53.590;10.062;2022-10-31T10:19:44;25.95;;;10.60;;
14736;SDS011;7459;53.590;10.062;2022-10-31T10:22:46;27.08;;;9.77;;
14736;SDS011;7459;53.590;10.062;2022-10-31T10:25:50;28.70;;;10.70;;
14736;SDS011;7459;53.590;10.062;2022-10-31T10:28:27;28.13;;;10.97;;
14736;SDS011;7459;53.590;10.062;2022-10-31T10:31:11;24.42;;;10.90;;
14736;SDS011;7459;53.590;10.062;2022-10-31T10:33:58;28.65;;;12.20;;
14736;SDS011;7459;53.590;10.062;2022-10-31T10:36:50;24.75;;;10.50;;
14736;SDS011;7459;53.590;10.062;2022-10-31T10:41:52;23.00;;;9.40;;
14736;SDS011;7459;53.590;10.062;2022-10-31T10:44:39;24.55;;;10.00;;
14736;SDS011;7459;53.590;10.062;2022-10-31T10:47:33;20.27;;;8.35;;
14736;SDS011;7459;53.590;10.062;2022-10-31T10:52:53;20.17;;;8.45;;
14736;SDS011;7459;53.590;10.062;2022-10-31T10:58:28;23.58;;;9.35;;
14736;SDS011;7459;53.590;10.062;2022-10-31T11:00:54;25.52;;;10.98;;
14736;SDS011;7459;53.590;10.062;2022-10-31T11:03:20;30.48;;;9.80;;
14736;SDS011;7459;53.590;10.062;2022-10-31T11:05:47;21.50;;;10.03;;
14736;SDS011;7459;53.590;10.062;2022-10-31T11:08:24;22.05;;;9.45;;
14736;SDS011;7459;53.590;10.062;2022-10-31T11:10:58;22.10;;;9.93;;
14736;SDS011;7459;53.590;10.062;2022-10-31T11:13:41;21.97;;;10.07;;
14736;SDS011;7459;53.590;10.062;2022-10-31T11:16:10;23.40;;;8.27;;
14736;SDS011;7459;53.590;10.062;2022-10-31T11:18:45;20.02;;;9.10;;
14736;SDS011;7459;53.590;10.062;2022-10-31T11:21:25;15.85;;;6.65;;
14736;SDS011;7459;53.590;10.062;2022-10-31T11:26:35;17.20;;;6.67;;
14736;SDS011;7459;53.590;10.062;2022-10-31T11:29:03;13.38;;;6.43;;
14736;SDS011;7459;53.590;10.062;2022-10-31T11:31:30;17.75;;;7.85;;
14736;SDS011;7459;53.590;10.062;2022-10-31T11:34:04;16.73;;;7.60;;
14736;SDS011;7459;53.590;10.062;2022-10-31T11:36:38;19.30;;;8.32;;
14736;SDS011;7459;53.590;10.062;2022-10-31T11:39:14;18.53;;;7.93;;
14736;SDS011;7459;53.590;10.062;2022-10-31T11:41:46;19.55;;;8.05;;
14736;SDS011;7459;53.590;10.062;2022-10-31T11:46:55;18.35;;;8.25;;
14736;SDS011;7459;53.590;10.062;2022-10-31T11:49:36;22.45;;;8.20;;
14736;SDS011;7459;53.590;10.062;2022-10-31T11:52:06;20.80;;;9.53;;
14736;SDS011;7459;53.590;10.062;2022-10-31T11:55:00;19.70;;;8.68;;
14736;SDS011;7459;53.590;10.062;2022-10-31T11:57:43;22.10;;;9.32;;
14736;SDS011;7459;53.590;10.062;2022-10-31T12:00:21;20.98;;;10.65;;
14736;SDS011;7459;53.590;10.062;2022-10-31T12:03:04;25.75;;;12.50;;
14736;SDS011;7459;53.590;10.062;2022-10-31T12:06:02;26.00;;;12.47;;
14736;SDS011;7459;53.590;10.062;2022-10-31T12:08:38;26.27;;;11.70;;
14736;SDS011;7459;53.590;10.062;2022-10-31T12:13:55;27.67;;;12.77;;
14736;SDS011;7459;53.590;10.062;2022-10-31T12:16:33;23.88;;;12.48;;
14736;SDS011;7459;53.590;10.062;2022-10-31T12:19:26;22.10;;;12.50;;
14736;SDS011;7459;53.590;10.062;2022-10-31T12:22:01;21.10;;;11.30;;
14736;SDS011;7459;53.590;10.062;2022-10-31T12:27:59;21.60;;;11.68;;
14736;SDS011;7459;53.590;10.062;2022-10-31T12:33:53;25.60;;;12.40;;
14736;SDS011;7459;53.590;10.062;2022-10-31T12:46:11;31.83;;;13.77;;
14736;SDS011;7459;53.590;10.062;2022-10-31T12:52:13;33.53;;;13.85;;
14736;SDS011;7459;53.590;10.062;2022-10-31T13:01:12;35.17;;;14.50;;
14736;SDS011;7459;53.590;10.062;2022-10-31T13:03:46;32.43;;;15.40;;
14736;SDS011;7459;53.590;10.062;2022-10-31T13:06:49;32.83;;;15.15;;
14736;SDS011;7459;53.590;10.062;2022-10-31T13:09:22;33.78;;;16.58;;
14736;SDS011;7459;53.590;10.062;2022-10-31T13:12:10;32.83;;;15.25;;
14736;SDS011;7459;53.590;10.062;2022-10-31T13:17:51;29.67;;;15.00;;
14736;SDS011;7459;53.590;10.062;2022-10-31T13:20:43;28.08;;;14.77;;
14736;SDS011;7459;53.590;10.062;2022-10-31T13:23:15;30.15;;;14.65;;
14736;SDS011;7459;53.590;10.062;2022-10-31T13:25:59;29.15;;;14.27;;
14736;SDS011;7459;53.590;10.062;2022-10-31T13:28:40;30.05;;;15.20;;
14736;SDS011;7459;53.590;10.062;2022-10-31T13:31:13;28.83;;;13.03;;
14736;SDS011;7459;53.590;10.062;2022-10-31T13:33:43;29.70;;;13.35;;
14736;SDS011;7459;53.590;10.062;2022-10-31T13:42:11;32.60;;;14.03;;
14736;SDS011;7459;53.590;10.062;2022-10-31T13:44:44;30.58;;;13.60;;
14736;SDS011;7459;53.590;10.062;2022-10-31T13:47:23;28.30;;;13.20;;
14736;SDS011;7459;53.590;10.062;2022-10-31T13:50:04;26.08;;;12.73;;
14736;SDS011;7459;53.590;10.062;2022-10-31T13:52:44;26.80;;;13.43;;
14736;SDS011;7459;53.590;10.062;2022-10-31T13:58:29;26.95;;;12.38;;
14736;SDS011;7459;53.590;10.062;2022-10-31T14:01:05;27.90;;;13.25;;
14736;SDS011;7459;53.590;10.062;2022-10-31T14:06:39;28.92;;;12.73;;
14736;SDS011;7459;53.590;10.062;2022-10-31T14:11:52;27.58;;;12.50;;
14736;SDS011;7459;53.590;10.062;2022-10-31T14:14:19;26.98;;;11.13;;
14736;SDS011;7459;53.590;10.062;2022-10-31T14:16:53;23.23;;;11.13;;
14736;SDS011;7459;53.590;10.062;2022-10-31T14:19:21;24.80;;;10.32;;
14736;SDS011;7459;53.590;10.062;2022-10-31T14:21:48;24.23;;;11.02;;
14736;SDS011;7459;53.590;10.062;2022-10-31T14:27:00;25.38;;;11.02;;
14736;SDS011;7459;53.590;10.062;2022-10-31T14:29:29;23.73;;;10.60;;
14736;SDS011;7459;53.590;10.062;2022-10-31T14:43:27;25.87;;;10.07;;
14736;SDS011;7459;53.590;10.062;2022-10-31T14:46:26;25.92;;;11.68;;
14736;SDS011;7459;53.590;10.062;2022-10-31T14:52:07;25.65;;;10.57;;
14736;SDS011;7459;53.590;10.062;2022-10-31T14:54:39;27.55;;;11.30;;
14736;SDS011;7459;53.590;10.062;2022-10-31T14:57:14;23.57;;;11.57;;
14736;SDS011;7459;53.590;10.062;2022-10-31T14:59:51;21.40;;;10.07;;
14736;SDS011;7459;53.590;10.062;2022-10-31T15:02:24;22.58;;;10.85;;
14736;SDS011;7459;53.590;10.062;2022-10-31T15:04:55;22.20;;;10.75;;
14736;SDS011;7459;53.590;10.062;2022-10-31T15:07:25;24.98;;;12.13;;
14736;SDS011;7459;53.590;10.062;2022-10-31T15:10:03;20.07;;;10.30;;
14736;SDS011;7459;53.590;10.062;2022-10-31T15:12:33;22.25;;;9.40;;
14736;SDS011;7459;53.590;10.062;2022-10-31T15:15:18;22.27;;;10.13;;
14736;SDS011;7459;53.590;10.062;2022-10-31T15:17:58;23.17;;;9.68;;
14736;SDS011;7459;53.590;10.062;2022-10-31T15:20:28;21.25;;;9.82;;
14736;SDS011;7459;53.590;10.062;2022-10-31T15:22:56;19.70;;;9.40;;
14736;SDS011;7459;53.590;10.062;2022-10-31T15:25:24;17.75;;;9.50;;
14736;SDS011;7459;53.590;10.062;2022-10-31T15:27:59;23.27;;;10.50;;
14736;SDS011;7459;53.590;10.062;2022-10-31T15:30:28;23.80;;;11.05;;
14736;SDS011;7459;53.590;10.062;2022-10-31T15:32:54;19.57;;;9.97;;
14736;SDS011;7459;53.590;10.062;2022-10-31T15:35:21;21.48;;;10.13;;
14736;SDS011;7459;53.590;10.062;2022-10-31T15:37:53;21.67;;;9.38;;
14736;SDS011;7459;53.590;10.062;2022-10-31T15:40:23;20.60;;;9.80;;
14736;SDS011;7459;53.590;10.062;2022-10-31T15:42:51;22.83;;;9.30;;
14736;SDS011;7459;53.590;10.062;2022-10-31T15:45:25;23.83;;;10.85;;
14736;SDS011;7459;53.590;10.062;2022-10-31T15:48:04;23.60;;;10.05;;
14736;SDS011;7459;53.590;10.062;2022-10-31T15:50:45;23.52;;;10.40;;
14736;SDS011;7459;53.590;10.062;2022-10-31T15:53:22;24.52;;;10.80;;
14736;SDS011;7459;53.590;10.062;2022-10-31T15:56:24;22.97;;;11.67;;
14736;SDS011;7459;53.590;10.062;2022-10-31T15:58:55;22.92;;;10.85;;
14736;SDS011;7459;53.590;10.062;2022-10-31T16:01:25;26.75;;;10.55;;
14736;SDS011;7459;53.590;10.062;2022-10-31T16:06:31;20.40;;;10.27;;
14736;SDS011;7459;53.590;10.062;2022-10-31T16:08:59;25.17;;;10.40;;
14736;SDS011;7459;53.590;10.062;2022-10-31T16:11:35;19.98;;;10.82;;
14736;SDS011;7459;53.590;10.062;2022-10-31T16:14:04;19.55;;;8.90;;
14736;SDS011;7459;53.590;10.062;2022-10-31T16:16:42;20.92;;;9.05;;
14736;SDS011;7459;53.590;10.062;2022-10-31T16:19:20;21.53;;;8.77;;
14736;SDS011;7459;53.590;10.062;2022-10-31T16:24:45;23.80;;;9.50;;
14736;SDS011;7459;53.590;10.062;2022-10-31T16:27:22;21.20;;;10.00;;
14736;SDS011;7459;53.590;10.062;2022-10-31T16:29:53;19.52;;;8.77;;
14736;SDS011;7459;53.590;10.062;2022-10-31T16:37:57;25.17;;;9.15;;
14736;SDS011;7459;53.590;10.062;2022-10-31T16:40:23;22.15;;;9.30;;
14736;SDS011;7459;53.590;10.062;2022-10-31T16:42:49;20.90;;;9.07;;
14736;SDS011;7459;53.590;10.062;2022-10-31T16:45:20;23.43;;;9.27;;
14736;SDS011;7459;53.590;10.062;2022-10-31T16:47:49;24.73;;;9.35;;
14736;SDS011;7459;53.590;10.062;2022-10-31T16:52:42;25.10;;;9.75;;
14736;SDS011;7459;53.590;10.062;2022-10-31T16:55:13;22.95;;;10.98;;
14736;SDS011;7459;53.590;10.062;2022-10-31T16:57:41;27.03;;;9.83;;
14736;SDS011;7459;53.590;10.062;2022-10-31T17:00:29;28.20;;;9.80;;
14736;SDS011;7459;53.590;10.062;2022-10-31T17:02:56;27.40;;;9.93;;